createdAt,value
2019-03-09T00:00:36.687Z,10.07
2019-03-09T00:03:10.027Z,7.70
2019-03-09T00:05:43.687Z,8.60
2019-03-09T00:08:17.131Z,6.33
2019-03-09T00:10:50.472Z,7.93
2019-03-09T00:13:23.819Z,8.73
2019-03-09T00:15:57.144Z,11.23
2019-03-09T00:18:30.766Z,7.77
2019-03-09T00:21:04.315Z,6.03
2019-03-09T00:23:39.470Z,6.90
2019-03-09T00:26:20.355Z,6.57
2019-03-09T00:28:55.459Z,6.13
2019-03-09T00:31:36.288Z,6.53
2019-03-09T00:34:09.614Z,7.50
2019-03-09T00:36:42.957Z,8.60
2019-03-09T00:39:18.205Z,6.83
2019-03-09T00:41:51.572Z,5.87
2019-03-09T00:44:24.970Z,6.27
2019-03-09T00:46:58.551Z,7.40
2019-03-09T00:49:32.104Z,7.20
2019-03-09T00:52:05.519Z,7.10
2019-03-09T00:54:38.829Z,6.47
2019-03-09T00:57:12.256Z,9.43
2019-03-09T00:59:45.589Z,8.40
2019-03-09T01:02:19.028Z,8.17
2019-03-09T01:04:52.443Z,7.73
2019-03-09T01:07:25.879Z,7.07
2019-03-09T01:09:59.204Z,7.27
2019-03-09T01:12:32.545Z,8.03
2019-03-09T01:15:07.800Z,8.07
2019-03-09T01:17:41.174Z,7.20
2019-03-09T01:20:16.135Z,11.80
2019-03-09T01:22:49.493Z,8.60
2019-03-09T01:25:22.791Z,8.87
2019-03-09T01:27:56.202Z,10.17
2019-03-09T01:30:29.506Z,9.67
2019-03-09T01:33:02.845Z,10.00
2019-03-09T01:35:36.171Z,10.10
2019-03-09T01:38:09.546Z,12.43
2019-03-09T01:40:42.926Z,9.13
2019-03-09T01:43:16.304Z,9.50
2019-03-09T01:45:49.616Z,10.77
2019-03-09T01:48:22.965Z,11.73
2019-03-09T01:50:56.346Z,10.20
2019-03-09T01:53:36.374Z,7.33
2019-03-09T01:56:04.810Z,13.43
2019-03-09T01:58:38.169Z,28.40
2019-03-09T02:01:11.569Z,19.33
2019-03-09T02:03:44.918Z,19.90
2019-03-09T02:06:18.236Z,18.70
2019-03-09T02:08:51.652Z,15.37
2019-03-09T02:11:25.036Z,16.30
2019-03-09T02:13:58.444Z,15.43
2019-03-09T02:16:31.768Z,7.13
2019-03-09T02:19:05.185Z,9.13
2019-03-09T02:21:38.489Z,6.03
2019-03-09T02:24:11.838Z,20.23
2019-03-09T02:26:45.191Z,12.53
2019-03-09T02:29:18.618Z,18.10
2019-03-09T02:31:52.015Z,15.80
2019-03-09T02:34:25.368Z,12.83
2019-03-09T02:36:58.706Z,18.40
2019-03-09T02:39:42.342Z,14.73
2019-03-09T02:42:15.670Z,20.77
2019-03-09T02:44:49.470Z,11.23
2019-03-09T02:47:22.803Z,19.43
2019-03-09T02:49:56.152Z,13.27
2019-03-09T02:52:29.484Z,16.17
2019-03-09T02:55:02.929Z,15.87
2019-03-09T02:57:36.259Z,12.33
2019-03-09T03:00:18.722Z,17.47
2019-03-09T03:02:53.699Z,17.57
2019-03-09T03:05:27.095Z,21.83
2019-03-09T03:08:00.442Z,23.00
2019-03-09T03:10:33.806Z,18.87
2019-03-09T03:13:07.431Z,15.73
2019-03-09T03:15:40.788Z,26.17
2019-03-09T03:18:14.202Z,35.07
2019-03-09T03:20:47.574Z,10.13
2019-03-09T03:23:20.911Z,10.73
2019-03-09T03:25:54.338Z,16.90
2019-03-09T03:28:27.761Z,22.17
2019-03-09T03:31:01.213Z,14.37
2019-03-09T03:33:34.618Z,13.27
2019-03-09T03:36:08.061Z,19.57
2019-03-09T03:38:41.402Z,12.83
2019-03-09T03:41:14.847Z,17.47
2019-03-09T03:43:48.246Z,19.53
2019-03-09T03:46:21.693Z,17.67
2019-03-09T03:48:55.036Z,18.17
2019-03-09T03:51:28.431Z,21.17
2019-03-09T03:54:01.830Z,24.90
2019-03-09T03:56:35.427Z,29.53
2019-03-09T03:59:08.874Z,18.50
2019-03-09T04:01:42.353Z,28.50
2019-03-09T04:04:15.790Z,20.33
2019-03-09T04:06:49.220Z,15.83
2019-03-09T04:09:22.741Z,19.43
2019-03-09T04:11:56.136Z,14.60
2019-03-09T04:14:29.539Z,26.23
2019-03-09T04:17:02.874Z,21.10
2019-03-09T04:19:36.346Z,1999.90
2019-03-09T04:22:09.822Z,1999.90
2019-03-09T04:24:43.222Z,1999.90
2019-03-09T04:27:16.680Z,270.37
2019-03-09T04:29:50.110Z,5.77
2019-03-09T04:32:23.508Z,6.60
2019-03-09T04:34:56.945Z,7.43
2019-03-09T04:37:30.296Z,6.17
2019-03-09T04:40:09.504Z,7.97
2019-03-09T04:42:42.837Z,5.13
2019-03-09T04:45:16.264Z,6.07
2019-03-09T04:47:49.668Z,4.57
2019-03-09T04:50:23.073Z,9.80
2019-03-09T04:52:57.303Z,3.90
2019-03-09T04:55:30.725Z,4.60
2019-03-09T04:58:04.054Z,4.67
2019-03-09T05:00:37.490Z,6.67
2019-03-09T05:03:10.887Z,3.97
2019-03-09T05:05:44.322Z,4.33
2019-03-09T05:08:20.842Z,5.90
2019-03-09T05:11:00.431Z,7.57
2019-03-09T05:13:36.798Z,4.37
2019-03-09T05:16:10.216Z,6.23
2019-03-09T05:18:43.541Z,4.90
2019-03-09T05:21:17.024Z,7.33
2019-03-09T05:23:50.424Z,8.20
2019-03-09T05:26:23.806Z,5.43
2019-03-09T05:28:57.226Z,4.10
2019-03-09T05:31:30.746Z,10.97
2019-03-09T05:34:04.261Z,3.70
2019-03-09T05:36:37.793Z,4.33
2019-03-09T05:39:11.256Z,8.63
2019-03-09T05:41:44.629Z,3.20
2019-03-09T05:44:19.616Z,4.13
2019-03-09T05:46:52.984Z,18.97
2019-03-09T05:49:26.332Z,14.07
2019-03-09T05:52:19.725Z,31.03
2019-03-09T05:54:53.278Z,25.93
2019-03-09T05:57:26.745Z,13.23
2019-03-09T06:00:00.453Z,28.13
2019-03-09T06:02:33.971Z,14.43
2019-03-09T06:05:33.994Z,13.73
2019-03-09T06:08:07.876Z,16.00
2019-03-09T06:10:41.611Z,15.87
2019-03-09T06:13:15.099Z,14.00
2019-03-09T06:15:48.487Z,12.07
2019-03-09T06:18:21.835Z,11.20
2019-03-09T06:20:55.277Z,12.73
2019-03-09T06:23:28.614Z,12.87
2019-03-09T06:26:02.174Z,13.90
2019-03-09T06:28:35.655Z,14.63
2019-03-09T06:31:09.131Z,11.13
2019-03-09T06:33:42.552Z,13.73
2019-03-09T06:36:19.126Z,13.80
2019-03-09T06:38:57.819Z,11.27
2019-03-09T06:41:53.717Z,8.43
2019-03-09T06:44:27.111Z,9.97
2019-03-09T06:47:00.562Z,11.67
2019-03-09T06:49:33.984Z,17.93
2019-03-09T06:52:07.484Z,10.43
2019-03-09T06:54:40.944Z,9.03
2019-03-09T06:57:14.390Z,11.00
2019-03-09T06:59:47.862Z,11.17
2019-03-09T07:02:21.395Z,11.00
2019-03-09T07:04:54.808Z,7.30
2019-03-09T07:07:28.402Z,11.57
2019-03-09T07:10:01.732Z,14.73
2019-03-09T07:12:35.098Z,12.80
2019-03-09T07:15:17.573Z,13.67
2019-03-09T07:17:52.142Z,14.43
2019-03-09T07:20:25.536Z,10.50
2019-03-09T07:22:59.099Z,10.63
2019-03-09T07:25:32.599Z,9.13
2019-03-09T07:28:08.684Z,16.37
2019-03-09T07:30:42.090Z,10.90
2019-03-09T07:33:16.169Z,11.80
2019-03-09T07:35:49.601Z,8.80
2019-03-09T07:38:23.042Z,15.07
2019-03-09T07:40:56.470Z,14.03
2019-03-09T07:43:29.912Z,16.17
2019-03-09T07:46:03.326Z,14.17
2019-03-09T07:48:36.930Z,13.60
2019-03-09T07:51:10.342Z,14.67
2019-03-09T07:53:43.772Z,16.23
2019-03-09T07:56:17.424Z,10.30
2019-03-09T07:58:50.802Z,12.33
2019-03-09T08:01:24.342Z,15.27
2019-03-09T08:03:57.686Z,15.13
2019-03-09T08:06:31.046Z,13.03
2019-03-09T08:09:05.876Z,16.87
2019-03-09T08:11:39.283Z,14.17
2019-03-09T08:14:12.652Z,11.30
2019-03-09T08:16:48.028Z,13.53
2019-03-09T08:19:21.365Z,12.23
2019-03-09T08:21:54.752Z,15.27
2019-03-09T08:24:28.077Z,13.10
2019-03-09T08:27:01.590Z,8.70
2019-03-09T08:29:35.036Z,18.20
2019-03-09T08:32:08.510Z,12.23
2019-03-09T08:34:42.043Z,14.87
2019-03-09T08:37:15.518Z,16.30
2019-03-09T08:39:48.922Z,14.30
2019-03-09T08:42:22.288Z,13.73
2019-03-09T08:44:55.651Z,16.00
2019-03-09T08:47:29.045Z,14.93
2019-03-09T08:50:02.461Z,11.90
2019-03-09T08:52:36.057Z,16.70
2019-03-09T08:55:11.058Z,14.07
2019-03-09T08:57:44.653Z,14.07
2019-03-09T09:00:20.895Z,14.17
2019-03-09T09:02:54.398Z,16.10
2019-03-09T09:05:27.835Z,13.07
2019-03-09T09:08:03.605Z,14.77
2019-03-09T09:10:36.325Z,12.33
2019-03-09T09:13:09.716Z,17.43
2019-03-09T09:15:43.055Z,10.77
2019-03-09T09:18:16.425Z,14.23
2019-03-09T09:20:49.781Z,13.67
2019-03-09T09:23:23.221Z,13.17
2019-03-09T09:25:56.554Z,11.93
2019-03-09T09:28:29.938Z,19.33
2019-03-09T09:31:03.336Z,12.80
2019-03-09T09:33:36.902Z,12.07
2019-03-09T09:36:10.310Z,12.90
2019-03-09T09:38:43.683Z,5.80
2019-03-09T09:41:17.037Z,17.00
2019-03-09T09:43:50.411Z,14.07
2019-03-09T09:46:23.810Z,12.60
2019-03-09T09:48:57.220Z,11.87
2019-03-09T09:51:30.639Z,12.77
2019-03-09T09:54:04.154Z,12.90
2019-03-09T09:56:37.559Z,15.00
2019-03-09T09:59:10.936Z,15.97
2019-03-09T10:01:44.275Z,12.70
2019-03-09T10:04:17.675Z,10.03
2019-03-09T10:06:51.083Z,15.17
2019-03-09T10:09:24.520Z,11.43
2019-03-09T10:11:57.857Z,11.03
2019-03-09T10:14:31.233Z,10.93
2019-03-09T10:17:04.696Z,13.03
2019-03-09T10:19:38.126Z,10.53
2019-03-09T10:22:11.537Z,9.53
2019-03-09T10:24:44.932Z,6.97
2019-03-09T10:27:18.285Z,8.47
2019-03-09T10:29:51.830Z,13.23
2019-03-09T10:32:25.613Z,12.63
2019-03-09T10:34:59.166Z,9.10
2019-03-09T10:37:32.693Z,8.97
2019-03-09T10:40:09.099Z,7.40
2019-03-09T10:42:42.447Z,9.77
2019-03-09T10:45:18.220Z,11.33
2019-03-09T10:47:51.902Z,10.37
2019-03-09T10:50:26.107Z,8.83
2019-03-09T10:52:59.621Z,11.70
2019-03-09T10:55:34.331Z,10.37
2019-03-09T10:58:07.661Z,8.87
2019-03-09T11:00:45.452Z,13.20
2019-03-09T11:03:18.882Z,9.85
2019-03-09T11:05:52.406Z,9.67
2019-03-09T11:08:25.905Z,10.53
2019-03-09T11:10:59.373Z,9.73
2019-03-09T11:13:32.711Z,11.43
2019-03-09T11:16:06.093Z,16.63
2019-03-09T11:18:39.438Z,11.10
2019-03-09T11:21:12.885Z,13.23
2019-03-09T11:23:46.427Z,13.50
2019-03-09T11:26:19.935Z,10.17
2019-03-09T11:28:53.263Z,11.90
2019-03-09T11:31:26.625Z,11.43
2019-03-09T11:33:59.990Z,11.03
2019-03-09T11:36:33.420Z,10.47
2019-03-09T11:39:07.835Z,10.70
2019-03-09T11:41:41.364Z,12.77
2019-03-09T11:44:14.701Z,11.00
2019-03-09T11:46:48.058Z,10.40
2019-03-09T11:49:21.395Z,13.77
2019-03-09T11:51:54.900Z,11.57
2019-03-09T11:54:28.385Z,16.10
2019-03-09T11:57:01.847Z,11.93
2019-03-09T11:59:35.313Z,10.33
2019-03-09T12:02:08.856Z,11.35
2019-03-09T12:04:46.712Z,11.22
2019-03-09T12:07:17.392Z,13.00
2019-03-09T12:09:50.773Z,12.03
2019-03-09T12:12:24.185Z,11.80
2019-03-09T12:14:57.631Z,9.30
2019-03-09T12:17:31.390Z,11.53
2019-03-09T12:20:07.095Z,14.93
2019-03-09T12:22:40.685Z,16.00
2019-03-09T12:25:18.175Z,10.28
2019-03-09T12:27:51.538Z,13.88
2019-03-09T12:30:24.953Z,9.00
2019-03-09T12:32:58.321Z,11.65
2019-03-09T12:35:31.842Z,8.98
2019-03-09T12:38:05.167Z,13.43
2019-03-09T12:40:38.611Z,10.03
2019-03-09T12:43:12.012Z,8.10
2019-03-09T12:45:45.411Z,9.13
2019-03-09T12:48:18.822Z,11.25
2019-03-09T12:50:52.352Z,7.62
2019-03-09T12:53:25.781Z,8.25
2019-03-09T12:55:59.149Z,12.58
2019-03-09T12:58:32.560Z,6.60
2019-03-09T13:01:05.930Z,8.63
2019-03-09T13:03:39.355Z,10.58
2019-03-09T13:06:12.875Z,12.40
2019-03-09T13:08:46.220Z,10.60
2019-03-09T13:11:19.590Z,8.68
2019-03-09T13:13:52.986Z,11.45
2019-03-09T13:16:26.345Z,10.10
2019-03-09T13:18:59.679Z,6.62
2019-03-09T13:21:33.124Z,7.28
2019-03-09T13:24:06.555Z,8.75
2019-03-09T13:26:39.930Z,11.18
2019-03-09T13:29:13.325Z,9.80
2019-03-09T13:31:46.702Z,7.43
2019-03-09T13:34:20.056Z,7.60
2019-03-09T13:36:53.675Z,8.98
2019-03-09T13:39:27.081Z,9.10
2019-03-09T13:42:00.451Z,7.62
2019-03-09T13:44:33.783Z,7.33
2019-03-09T13:47:07.559Z,7.90
2019-03-09T13:49:40.895Z,8.90
2019-03-09T13:52:14.260Z,10.53
2019-03-09T13:54:47.589Z,7.75
2019-03-09T13:57:20.968Z,10.38
2019-03-09T13:59:54.570Z,10.27
2019-03-09T14:02:28.085Z,7.15
2019-03-09T14:05:01.616Z,10.38
2019-03-09T14:07:35.076Z,6.60
2019-03-09T14:10:13.185Z,8.37
2019-03-09T14:12:46.567Z,8.98
2019-03-09T14:15:20.090Z,4.80
2019-03-09T14:17:53.843Z,8.70
2019-03-09T14:20:27.561Z,7.17
2019-03-09T14:23:01.062Z,6.55
2019-03-09T14:25:34.457Z,5.00
2019-03-09T14:28:07.903Z,8.20
2019-03-09T14:30:41.411Z,7.40
2019-03-09T14:33:14.784Z,11.53
2019-03-09T14:35:48.146Z,9.65
2019-03-09T14:38:21.535Z,6.65
2019-03-09T14:40:54.870Z,10.65
2019-03-09T14:43:28.259Z,8.05
2019-03-09T14:46:01.586Z,7.22
2019-03-09T14:48:34.957Z,9.83
2019-03-09T14:51:08.376Z,8.18
2019-03-09T14:53:41.801Z,6.47
2019-03-09T14:56:15.141Z,8.10
2019-03-09T14:58:48.586Z,6.45
2019-03-09T15:01:21.990Z,8.58
2019-03-09T15:03:55.435Z,5.30
2019-03-09T15:06:28.857Z,5.63
2019-03-09T15:09:02.219Z,6.37
2019-03-09T15:11:35.623Z,6.40
2019-03-09T15:14:08.993Z,5.63
2019-03-09T15:16:42.358Z,5.07
2019-03-09T15:19:15.705Z,5.23
2019-03-09T15:21:49.099Z,7.17
2019-03-09T15:24:22.699Z,4.53
2019-03-09T15:26:56.051Z,6.93
2019-03-09T15:29:29.478Z,4.60
2019-03-09T15:32:02.872Z,6.10
2019-03-09T15:34:36.270Z,5.93
2019-03-09T15:37:09.710Z,3.00
2019-03-09T15:39:43.107Z,4.47
2019-03-09T15:42:16.532Z,6.07
2019-03-09T15:44:49.871Z,5.07
2019-03-09T15:47:23.375Z,8.13
2019-03-09T15:49:56.851Z,5.47
2019-03-09T15:52:30.240Z,4.50
2019-03-09T15:55:04.120Z,7.17
2019-03-09T15:57:37.552Z,5.00
2019-03-09T16:00:23.988Z,10.30
2019-03-09T16:02:57.352Z,6.07
2019-03-09T16:05:30.788Z,4.90
2019-03-09T16:08:04.294Z,6.67
2019-03-09T16:10:37.759Z,5.87
2019-03-09T16:13:11.137Z,5.97
2019-03-09T16:15:44.474Z,5.67
2019-03-09T16:18:17.831Z,3.50
2019-03-09T16:20:51.200Z,2.33
2019-03-09T16:23:24.826Z,3.77
2019-03-09T16:25:58.257Z,3.83
2019-03-09T16:28:31.586Z,3.17
2019-03-09T16:31:05.018Z,3.00
2019-03-09T16:33:38.452Z,3.10
2019-03-09T16:36:11.814Z,3.87
2019-03-09T16:38:45.261Z,2.93
2019-03-09T16:41:18.648Z,6.00
2019-03-09T16:43:52.119Z,5.10
2019-03-09T16:46:25.527Z,5.47
2019-03-09T16:48:58.873Z,2.83
2019-03-09T16:51:32.310Z,9.63
2019-03-09T16:54:05.655Z,9.93
2019-03-09T16:56:39.098Z,7.53
2019-03-09T16:59:12.443Z,5.70
2019-03-09T17:01:45.871Z,8.50
2019-03-09T17:04:19.211Z,8.83
2019-03-09T17:06:52.570Z,6.37
2019-03-09T17:09:25.969Z,6.30
2019-03-09T17:11:59.424Z,8.60
2019-03-09T17:14:32.771Z,6.67
2019-03-09T17:17:06.146Z,5.90
2019-03-09T17:19:39.617Z,7.33
2019-03-09T17:22:13.050Z,6.27
2019-03-09T17:24:46.384Z,6.10
2019-03-09T17:27:19.742Z,6.80
2019-03-09T17:29:53.150Z,8.10
2019-03-09T17:32:26.537Z,6.13
2019-03-09T17:34:59.955Z,7.37
2019-03-09T17:37:33.327Z,6.87
2019-03-09T17:40:08.796Z,5.10
2019-03-09T17:42:42.293Z,7.13
2019-03-09T17:45:27.208Z,7.97
2019-03-09T17:48:00.677Z,7.00
2019-03-09T17:50:34.041Z,7.10
2019-03-09T17:53:07.524Z,12.70
2019-03-09T17:55:40.919Z,9.03
2019-03-09T17:58:14.283Z,6.10
2019-03-09T18:00:48.561Z,5.80
2019-03-09T18:03:21.982Z,5.40
2019-03-09T18:05:55.402Z,6.37
2019-03-09T18:08:28.790Z,7.60
2019-03-09T18:11:08.328Z,6.53
2019-03-09T18:13:41.754Z,7.80
2019-03-09T18:16:15.081Z,5.17
2019-03-09T18:18:48.523Z,6.20
2019-03-09T18:21:21.875Z,4.53
2019-03-09T18:23:55.230Z,2.77
2019-03-09T18:26:28.560Z,4.33
2019-03-09T18:29:01.948Z,3.33
2019-03-09T18:31:35.277Z,2.90
2019-03-09T18:34:08.644Z,2.67
2019-03-09T18:36:42.041Z,2.23
2019-03-09T18:39:15.469Z,1.43
2019-03-09T18:41:48.804Z,1.50
2019-03-09T18:44:22.176Z,5.67
2019-03-09T18:46:55.578Z,3.90
2019-03-09T18:49:28.963Z,6.90
2019-03-09T18:52:02.279Z,6.17
2019-03-09T18:54:35.631Z,3.67
2019-03-09T18:57:09.053Z,1.90
2019-03-09T18:59:42.572Z,6.37
2019-03-09T19:02:16.126Z,4.23
2019-03-09T19:04:49.485Z,4.43
2019-03-09T19:07:22.885Z,3.10
2019-03-09T19:09:56.497Z,4.03
2019-03-09T19:12:29.892Z,5.60
2019-03-09T19:15:03.256Z,7.60
2019-03-09T19:17:36.582Z,3.13
2019-03-09T19:20:14.565Z,3.07
2019-03-09T19:22:48.034Z,4.37
2019-03-09T19:25:21.464Z,4.07
2019-03-09T19:27:54.802Z,7.70
2019-03-09T19:30:28.191Z,5.07
2019-03-09T19:33:01.527Z,5.60
2019-03-09T19:35:34.891Z,4.33
2019-03-09T19:38:08.279Z,4.23
2019-03-09T19:40:41.725Z,5.33
2019-03-09T19:43:15.065Z,4.03
2019-03-09T19:45:48.503Z,3.67
2019-03-09T19:48:21.844Z,5.87
2019-03-09T19:50:55.290Z,8.30
2019-03-09T19:53:28.615Z,3.37
2019-03-09T19:56:01.984Z,6.20
2019-03-09T19:58:35.423Z,2.93
2019-03-09T20:01:08.819Z,6.57
2019-03-09T20:03:42.243Z,7.10
2019-03-09T20:06:15.645Z,5.73
2019-03-09T20:08:49.006Z,5.27
2019-03-09T20:11:22.392Z,5.97
2019-03-09T20:13:55.755Z,10.70
2019-03-09T20:16:29.091Z,6.03
2019-03-09T20:19:02.546Z,5.37
2019-03-09T20:21:35.841Z,2.60
2019-03-09T20:24:09.279Z,9.33
2019-03-09T20:26:42.676Z,4.03
2019-03-09T20:29:16.098Z,5.70
2019-03-09T20:31:49.534Z,8.23
2019-03-09T20:34:22.899Z,6.67
2019-03-09T20:36:56.229Z,4.07
2019-03-09T20:39:29.690Z,5.13
2019-03-09T20:42:03.135Z,5.07
2019-03-09T20:44:36.496Z,5.87
2019-03-09T20:47:09.849Z,5.77
2019-03-09T20:49:43.218Z,8.40
2019-03-09T20:52:16.636Z,5.33
2019-03-09T20:54:50.000Z,4.13
2019-03-09T20:57:23.348Z,5.50
2019-03-09T20:59:56.739Z,5.33
2019-03-09T21:02:30.155Z,7.97
2019-03-09T21:05:04.195Z,4.97
2019-03-09T21:07:37.580Z,7.77
2019-03-09T21:10:16.713Z,12.17
2019-03-09T21:13:03.926Z,4.37
2019-03-09T21:15:37.404Z,9.53
2019-03-09T21:18:10.741Z,6.93
2019-03-09T21:20:44.151Z,3.80
2019-03-09T21:23:17.489Z,9.30
2019-03-09T21:25:50.933Z,6.17
2019-03-09T21:28:24.258Z,10.53
2019-03-09T21:30:57.678Z,8.70
2019-03-09T21:33:31.002Z,7.13
2019-03-09T21:36:04.364Z,6.27
2019-03-09T21:38:38.143Z,7.43
2019-03-09T21:41:13.262Z,7.07
2019-03-09T21:43:47.072Z,4.03
2019-03-09T21:46:20.443Z,5.67
2019-03-09T21:48:53.784Z,5.90
2019-03-09T21:51:27.156Z,7.90
2019-03-09T21:54:00.492Z,5.50
2019-03-09T21:56:33.863Z,7.57
2019-03-09T21:59:07.614Z,4.20
2019-03-09T22:01:40.988Z,4.60
2019-03-09T22:04:14.308Z,6.27
2019-03-09T22:06:47.804Z,5.60
2019-03-09T22:09:21.148Z,5.87
2019-03-09T22:11:54.636Z,5.40
2019-03-09T22:14:27.985Z,7.77
2019-03-09T22:17:01.342Z,6.30
2019-03-09T22:19:34.687Z,8.63
2019-03-09T22:22:08.128Z,10.23
2019-03-09T22:24:41.455Z,3.80
2019-03-09T22:27:14.816Z,4.73
2019-03-09T22:29:48.179Z,5.73
2019-03-09T22:32:21.511Z,4.63
2019-03-09T22:34:54.835Z,5.33
2019-03-09T22:37:28.197Z,6.20
2019-03-09T22:40:01.537Z,7.53
2019-03-09T22:42:34.912Z,12.90
2019-03-09T22:45:12.938Z,9.57
2019-03-09T22:47:46.389Z,5.90
2019-03-09T22:50:24.035Z,7.63
2019-03-09T22:52:57.439Z,4.93
2019-03-09T22:55:30.905Z,8.10
2019-03-09T22:58:04.310Z,11.53
2019-03-09T23:00:37.875Z,5.30
2019-03-09T23:03:11.344Z,4.77
2019-03-09T23:05:44.769Z,9.47
2019-03-09T23:08:18.170Z,4.93
2019-03-09T23:10:51.600Z,10.37
2019-03-09T23:13:24.996Z,6.67
2019-03-09T23:15:58.666Z,6.13
2019-03-09T23:18:32.336Z,7.80
2019-03-09T23:21:06.051Z,9.33
2019-03-09T23:23:39.674Z,7.03
2019-03-09T23:26:13.392Z,5.80
2019-03-09T23:28:47.752Z,4.83
2019-03-09T23:31:21.493Z,5.40
2019-03-09T23:33:55.092Z,7.40
2019-03-09T23:36:28.704Z,5.90
2019-03-09T23:39:02.157Z,13.07
2019-03-09T23:41:35.594Z,7.87
2019-03-09T23:44:09.012Z,3.23
2019-03-09T23:46:42.465Z,8.10
2019-03-09T23:49:15.929Z,5.43
2019-03-09T23:51:49.365Z,5.90
2019-03-09T23:54:22.813Z,10.33
2019-03-09T23:56:56.242Z,7.83
2019-03-09T23:59:32.451Z,6.27
